createdAt,value
2022-10-30T00:01:12.692Z,14.21
2022-10-30T00:04:26.433Z,14.24
2022-10-30T00:08:05.208Z,14.20
2022-10-30T00:11:55.284Z,14.16
2022-10-30T00:15:21.576Z,14.15
2022-10-30T00:18:38.249Z,14.17
2022-10-30T00:29:01.125Z,14.07
2022-10-30T00:32:48.456Z,14.03
2022-10-30T00:39:25.738Z,14.02
2022-10-30T00:42:36.229Z,14.06
2022-10-30T00:45:47.737Z,14.06
2022-10-30T00:48:59.968Z,14.05
2022-10-30T00:52:29.104Z,14.05
2022-10-30T00:56:00.700Z,14.08
2022-10-30T00:59:13.446Z,14.10
2022-10-30T01:02:31.018Z,14.06
2022-10-30T01:05:44.967Z,14.04
2022-10-30T01:09:00.140Z,14.03
2022-10-30T01:12:13.421Z,14.00
2022-10-30T01:15:30.355Z,14.00
2022-10-30T01:18:50.537Z,14.00
2022-10-30T01:22:20.843Z,13.96
2022-10-30T01:25:49.904Z,13.88
2022-10-30T01:29:20.424Z,13.83
2022-10-30T01:33:01.294Z,13.79
2022-10-30T01:36:31.795Z,13.79
2022-10-30T01:39:49.931Z,13.76
2022-10-30T01:42:59.547Z,13.79
2022-10-30T01:46:43.476Z,13.85
2022-10-30T01:50:21.912Z,13.94
2022-10-30T01:53:45.796Z,13.97
2022-10-30T01:57:11.111Z,14.00
2022-10-30T02:00:26.779Z,14.02
2022-10-30T02:03:40.092Z,14.03
2022-10-30T02:06:47.686Z,14.09
2022-10-30T02:10:07.757Z,14.14
2022-10-30T02:13:14.644Z,14.16
2022-10-30T02:16:20.906Z,14.19
2022-10-30T02:19:28.841Z,14.28
2022-10-30T02:22:39.534Z,14.31
2022-10-30T02:25:48.841Z,14.35
2022-10-30T02:28:58.266Z,14.34
2022-10-30T02:32:05.911Z,14.32
2022-10-30T02:35:15.478Z,14.32
2022-10-30T02:38:26.691Z,14.35
2022-10-30T02:41:33.160Z,14.32
2022-10-30T02:44:42.809Z,14.31
2022-10-30T02:47:50.003Z,14.27
2022-10-30T02:50:56.131Z,14.23
2022-10-30T02:54:07.147Z,14.15
2022-10-30T02:57:15.684Z,14.15
2022-10-30T03:00:23.643Z,14.11
2022-10-30T03:03:31.559Z,14.08
2022-10-30T03:06:38.040Z,14.02
2022-10-30T03:09:46.269Z,14.03
2022-10-30T03:12:52.521Z,14.02
2022-10-30T03:16:06.244Z,14.00
2022-10-30T03:19:13.133Z,13.90
2022-10-30T03:22:19.784Z,13.81
2022-10-30T03:25:28.978Z,13.77
2022-10-30T03:28:37.112Z,13.71
2022-10-30T03:31:43.518Z,13.64
2022-10-30T03:34:50.031Z,13.52
2022-10-30T03:37:59.828Z,13.45
2022-10-30T03:41:08.390Z,13.40
2022-10-30T03:44:14.667Z,13.36
2022-10-30T03:47:21.859Z,13.33
2022-10-30T03:50:29.849Z,13.26
2022-10-30T03:53:38.554Z,13.22
2022-10-30T03:56:47.713Z,13.14
2022-10-30T03:59:53.464Z,13.09
2022-10-30T04:03:00.824Z,13.05
2022-10-30T04:06:08.562Z,12.98
2022-10-30T04:09:15.811Z,12.95
2022-10-30T04:12:24.392Z,12.89
2022-10-30T04:15:31.968Z,12.84
2022-10-30T04:18:41.715Z,12.90
2022-10-30T04:21:54.877Z,12.87
2022-10-30T04:25:03.029Z,12.76
2022-10-30T04:28:13.133Z,12.73
2022-10-30T04:31:22.861Z,12.74
2022-10-30T04:34:31.071Z,12.75
2022-10-30T04:37:43.105Z,12.74
2022-10-30T04:40:52.006Z,12.68
2022-10-30T04:44:04.439Z,12.69
2022-10-30T04:47:12.495Z,12.65
2022-10-30T04:50:22.993Z,12.63
2022-10-30T04:53:36.730Z,12.61
2022-10-30T04:56:44.634Z,12.60
2022-10-30T04:59:51.831Z,12.55
2022-10-30T05:02:58.218Z,12.51
2022-10-30T05:06:07.847Z,12.53
2022-10-30T05:09:17.176Z,12.49
2022-10-30T05:12:26.313Z,12.48
2022-10-30T05:15:36.449Z,12.41
2022-10-30T05:18:42.492Z,12.37
2022-10-30T05:21:51.200Z,12.32
2022-10-30T05:24:57.579Z,12.29
2022-10-30T05:28:04.080Z,12.23
2022-10-30T05:31:12.748Z,12.22
2022-10-30T05:34:20.839Z,12.16
2022-10-30T05:37:27.473Z,12.16
2022-10-30T05:40:34.659Z,12.16
2022-10-30T05:43:41.900Z,12.14
2022-10-30T05:46:50.157Z,12.10
2022-10-30T05:49:56.474Z,12.01
2022-10-30T05:53:04.533Z,12.00
2022-10-30T05:56:11.016Z,11.99
2022-10-30T05:59:18.903Z,11.97
2022-10-30T06:02:26.958Z,11.89
2022-10-30T06:05:34.916Z,11.89
2022-10-30T06:08:44.415Z,11.95
2022-10-30T06:11:50.578Z,11.92
2022-10-30T06:14:56.917Z,11.96
2022-10-30T06:18:04.858Z,12.03
2022-10-30T06:21:11.432Z,12.05
2022-10-30T06:24:20.389Z,12.10
2022-10-30T06:27:26.528Z,12.17
2022-10-30T06:30:35.155Z,12.17
2022-10-30T06:33:46.772Z,12.23
2022-10-30T06:36:56.122Z,12.26
2022-10-30T06:40:08.088Z,12.26
2022-10-30T06:43:18.954Z,12.27
2022-10-30T06:46:33.605Z,12.31
2022-10-30T06:49:50.987Z,12.39
2022-10-30T06:52:59.257Z,12.54
2022-10-30T06:56:15.870Z,12.65
2022-10-30T06:59:29.404Z,12.86
2022-10-30T07:02:43.479Z,13.01
2022-10-30T07:05:55.362Z,13.21
2022-10-30T07:09:03.553Z,13.34
2022-10-30T07:12:17.921Z,13.47
2022-10-30T07:15:32.144Z,13.58
2022-10-30T07:18:42.352Z,13.68
2022-10-30T07:21:52.172Z,13.76
2022-10-30T07:25:02.742Z,13.81
2022-10-30T07:28:07.718Z,13.90
2022-10-30T07:31:10.290Z,13.97
2022-10-30T07:34:13.161Z,14.02
2022-10-30T07:37:17.161Z,14.10
2022-10-30T07:40:20.533Z,14.19
2022-10-30T07:43:23.276Z,14.29
2022-10-30T07:46:25.949Z,14.36
2022-10-30T07:49:28.535Z,14.46
2022-10-30T07:52:33.929Z,14.61
2022-10-30T07:55:36.601Z,14.75
2022-10-30T07:58:45.642Z,14.83
2022-10-30T08:01:49.798Z,14.96
2022-10-30T08:04:52.589Z,15.00
2022-10-30T08:07:56.782Z,15.09
2022-10-30T08:10:59.712Z,15.16
2022-10-30T08:14:02.799Z,15.25
2022-10-30T08:17:07.563Z,15.33
2022-10-30T08:20:11.907Z,15.44
2022-10-30T08:23:17.677Z,15.53
2022-10-30T08:26:20.287Z,15.66
2022-10-30T08:29:23.004Z,15.75
2022-10-30T08:32:25.645Z,15.83
2022-10-30T08:35:28.664Z,15.89
2022-10-30T08:38:32.720Z,15.99
2022-10-30T08:41:35.327Z,16.09
2022-10-30T08:44:38.011Z,16.15
2022-10-30T08:47:40.606Z,16.21
2022-10-30T08:50:43.412Z,16.31
2022-10-30T08:53:49.077Z,16.38
2022-10-30T08:56:52.069Z,16.51
2022-10-30T08:59:54.864Z,16.64
2022-10-30T09:02:58.118Z,16.73
2022-10-30T09:06:01.474Z,16.82
2022-10-30T09:09:05.584Z,16.90
2022-10-30T09:12:08.304Z,17.03
2022-10-30T09:15:11.048Z,17.11
2022-10-30T09:18:13.853Z,17.23
2022-10-30T09:21:16.432Z,17.33
2022-10-30T09:24:20.752Z,18.62
2022-10-30T09:27:23.708Z,21.13
2022-10-30T09:30:27.087Z,23.30
2022-10-30T09:33:29.830Z,24.94
2022-10-30T09:36:33.024Z,25.74
2022-10-30T09:39:37.004Z,26.24
2022-10-30T09:42:45.865Z,26.69
2022-10-30T09:46:06.469Z,27.18
2022-10-30T09:49:29.154Z,27.71
2022-10-30T09:52:39.686Z,27.37
2022-10-30T09:55:52.185Z,25.94
2022-10-30T09:59:04.749Z,24.62
2022-10-30T10:02:22.752Z,23.61
2022-10-30T10:05:30.640Z,23.33
2022-10-30T10:08:40.435Z,22.95
2022-10-30T10:11:49.237Z,22.49
2022-10-30T10:14:53.101Z,22.15
2022-10-30T10:17:56.258Z,21.86
2022-10-30T10:21:06.608Z,21.64
2022-10-30T10:24:19.983Z,21.53
2022-10-30T10:27:46.055Z,21.43
2022-10-30T10:30:55.344Z,21.25
2022-10-30T10:34:10.559Z,21.17
2022-10-30T10:37:22.969Z,21.15
2022-10-30T10:40:39.338Z,21.15
2022-10-30T10:43:59.225Z,21.17
2022-10-30T10:47:36.005Z,21.21
2022-10-30T10:50:48.437Z,21.22
2022-10-30T10:53:56.795Z,21.27
2022-10-30T10:57:00.637Z,21.33
2022-10-30T11:00:07.634Z,21.32
2022-10-30T11:06:25.379Z,21.44
2022-10-30T11:09:28.381Z,21.49
2022-10-30T11:12:35.448Z,21.53
2022-10-30T11:15:52.462Z,21.58
2022-10-30T11:18:59.119Z,21.62
2022-10-30T11:22:03.000Z,21.75
2022-10-30T11:25:20.526Z,21.81
2022-10-30T11:28:37.032Z,21.84
2022-10-30T11:31:42.665Z,21.90
2022-10-30T11:34:45.350Z,21.95
2022-10-30T11:37:50.003Z,21.96
2022-10-30T11:40:53.740Z,22.00
2022-10-30T11:43:56.817Z,21.99
2022-10-30T11:47:01.496Z,22.00
2022-10-30T11:50:07.481Z,22.05
2022-10-30T11:53:14.479Z,22.10
2022-10-30T11:56:20.204Z,22.07
2022-10-30T11:59:25.145Z,22.02
2022-10-30T12:02:31.042Z,21.99
2022-10-30T12:05:39.608Z,21.99
2022-10-30T12:08:42.902Z,21.97
2022-10-30T12:11:46.136Z,21.98
2022-10-30T12:14:49.193Z,22.05
2022-10-30T12:17:54.444Z,22.11
2022-10-30T12:20:58.745Z,22.13
2022-10-30T12:24:06.854Z,22.22
2022-10-30T12:27:19.675Z,22.25
2022-10-30T12:30:26.509Z,22.32
2022-10-30T12:33:36.145Z,22.44
2022-10-30T12:36:46.420Z,22.58
2022-10-30T12:39:57.964Z,22.76
2022-10-30T12:43:09.450Z,22.85
2022-10-30T12:46:27.409Z,22.98
2022-10-30T12:49:41.074Z,23.16
2022-10-30T12:52:50.518Z,23.21
2022-10-30T12:55:59.819Z,23.49
2022-10-30T12:59:21.614Z,23.81
2022-10-30T13:02:36.865Z,23.88
2022-10-30T13:05:46.944Z,23.70
2022-10-30T13:09:05.303Z,23.51
2022-10-30T13:12:11.568Z,23.32
2022-10-30T13:15:23.472Z,23.13
2022-10-30T13:18:27.964Z,22.95
2022-10-30T13:21:38.393Z,22.79
2022-10-30T13:24:50.882Z,22.61
2022-10-30T13:27:58.764Z,22.50
2022-10-30T13:31:09.058Z,22.43
2022-10-30T13:34:25.720Z,22.35
2022-10-30T13:37:38.185Z,22.33
2022-10-30T13:40:44.680Z,22.32
2022-10-30T13:43:57.867Z,22.31
2022-10-30T13:47:13.763Z,22.28
2022-10-30T13:50:27.686Z,22.28
2022-10-30T13:53:36.671Z,22.33
2022-10-30T13:56:41.306Z,22.34
2022-10-30T13:59:54.252Z,22.36
2022-10-30T14:03:13.613Z,22.35
2022-10-30T14:06:29.355Z,22.27
2022-10-30T14:09:43.162Z,22.21
2022-10-30T14:12:50.619Z,22.14
2022-10-30T14:15:56.299Z,22.04
2022-10-30T14:19:01.883Z,21.93
2022-10-30T14:22:04.513Z,21.80
2022-10-30T14:25:18.176Z,21.62
2022-10-30T14:28:21.526Z,21.46
2022-10-30T14:31:35.635Z,21.28
2022-10-30T14:34:43.269Z,21.12
2022-10-30T14:37:58.811Z,20.92
2022-10-30T14:41:23.321Z,20.75
2022-10-30T14:44:43.024Z,20.57
2022-10-30T14:47:58.340Z,20.40
2022-10-30T14:51:09.156Z,20.28
2022-10-30T14:54:22.519Z,20.15
2022-10-30T14:57:48.016Z,20.01
2022-10-30T15:00:51.690Z,19.92
2022-10-30T15:04:05.384Z,19.80
2022-10-30T15:07:17.534Z,19.71
2022-10-30T15:10:29.040Z,19.62
2022-10-30T15:13:33.363Z,19.54
2022-10-30T15:16:40.888Z,19.43
2022-10-30T15:19:44.115Z,19.37
2022-10-30T15:22:50.424Z,19.27
2022-10-30T15:25:55.596Z,19.18
2022-10-30T15:29:00.061Z,19.06
2022-10-30T15:32:04.528Z,18.97
2022-10-30T15:35:16.911Z,18.88
2022-10-30T15:38:19.541Z,18.78
2022-10-30T15:41:22.188Z,18.68
2022-10-30T15:44:29.580Z,18.57
2022-10-30T15:47:32.422Z,18.50
2022-10-30T15:50:36.571Z,18.40
2022-10-30T15:53:45.169Z,18.31
2022-10-30T15:57:27.039Z,18.23
2022-10-30T16:00:23.659Z,18.11
2022-10-30T16:03:26.908Z,18.00
2022-10-30T16:06:31.569Z,17.88
2022-10-30T16:09:34.656Z,17.78
2022-10-30T16:12:39.558Z,17.71
2022-10-30T16:15:47.242Z,17.57
2022-10-30T16:18:50.296Z,17.44
2022-10-30T16:21:54.468Z,17.34
2022-10-30T16:24:58.759Z,17.25
2022-10-30T16:28:01.722Z,17.21
2022-10-30T16:31:09.946Z,17.08
2022-10-30T16:34:22.759Z,17.03
2022-10-30T16:37:29.310Z,16.92
2022-10-30T16:40:32.812Z,16.87
2022-10-30T16:43:35.949Z,16.77
2022-10-30T16:46:42.088Z,16.72
2022-10-30T16:49:49.671Z,16.69
2022-10-30T16:52:52.999Z,16.61
2022-10-30T16:55:58.366Z,16.51
2022-10-30T16:59:09.076Z,16.47
2022-10-30T17:02:19.730Z,16.40
2022-10-30T17:05:27.530Z,16.27
2022-10-30T17:08:40.620Z,16.22
2022-10-30T17:11:48.844Z,16.14
2022-10-30T17:15:08.147Z,16.09
2022-10-30T17:18:17.790Z,16.01
2022-10-30T17:21:24.449Z,15.86
2022-10-30T17:24:32.252Z,15.81
2022-10-30T17:27:50.115Z,15.79
2022-10-30T17:30:52.789Z,15.74
2022-10-30T17:34:18.499Z,15.62
2022-10-30T17:37:21.173Z,15.58
2022-10-30T17:40:23.890Z,15.59
2022-10-30T17:43:29.342Z,15.50
2022-10-30T17:46:32.121Z,15.47
2022-10-30T17:49:38.709Z,15.43
2022-10-30T17:52:41.759Z,15.41
2022-10-30T17:55:48.091Z,15.41
2022-10-30T17:58:52.141Z,15.43
2022-10-30T18:01:54.859Z,15.39
2022-10-30T18:04:59.127Z,15.43
2022-10-30T18:08:02.190Z,15.49
2022-10-30T18:11:04.893Z,15.52
2022-10-30T18:14:07.801Z,15.49
2022-10-30T18:17:10.667Z,15.50
2022-10-30T18:20:18.112Z,15.47
2022-10-30T18:26:46.393Z,15.41
2022-10-30T18:29:49.043Z,15.33
2022-10-30T18:32:52.114Z,15.33
2022-10-30T18:35:57.521Z,15.33
2022-10-30T18:39:00.124Z,15.29
2022-10-30T18:42:02.884Z,15.28
2022-10-30T18:45:18.597Z,15.27
2022-10-30T18:48:21.230Z,15.20
2022-10-30T18:51:27.400Z,15.19
2022-10-30T18:54:30.042Z,15.17
2022-10-30T18:57:33.112Z,15.12
2022-10-30T19:00:58.129Z,15.07
2022-10-30T19:04:00.816Z,14.98
2022-10-30T19:07:05.062Z,14.90
2022-10-30T19:10:08.559Z,14.90
2022-10-30T19:13:15.418Z,14.85
2022-10-30T19:16:20.167Z,14.76
2022-10-30T19:19:23.177Z,14.69
2022-10-30T19:22:27.633Z,14.67
2022-10-30T19:25:33.527Z,14.56
2022-10-30T19:28:38.212Z,14.59
2022-10-30T19:31:43.011Z,14.61
2022-10-30T19:34:49.784Z,14.55
2022-10-30T19:37:56.838Z,14.52
2022-10-30T19:41:03.733Z,14.54
2022-10-30T19:44:08.921Z,14.48
2022-10-30T19:47:14.041Z,14.39
2022-10-30T19:50:27.617Z,14.38
2022-10-30T19:53:34.316Z,14.31
2022-10-30T19:56:39.594Z,14.25
2022-10-30T19:59:44.633Z,14.20
2022-10-30T20:02:50.720Z,14.18
2022-10-30T20:05:56.421Z,14.11
2022-10-30T20:09:02.934Z,14.12
2022-10-30T20:12:08.447Z,14.08
2022-10-30T20:15:18.949Z,14.13
2022-10-30T20:18:27.837Z,14.18
2022-10-30T20:21:33.994Z,14.18
2022-10-30T20:24:42.211Z,14.17
2022-10-30T20:27:49.278Z,14.22
2022-10-30T20:30:54.879Z,14.27
2022-10-30T20:33:59.685Z,14.22
2022-10-30T20:37:04.571Z,14.16
2022-10-30T20:40:16.886Z,14.15
2022-10-30T20:43:45.983Z,14.08
2022-10-30T20:46:52.314Z,13.97
2022-10-30T20:49:56.940Z,13.92
2022-10-30T20:53:01.803Z,13.92
2022-10-30T20:56:09.915Z,13.87
2022-10-30T20:59:16.288Z,13.82
2022-10-30T21:02:21.145Z,13.77
2022-10-30T21:08:51.491Z,13.63
2022-10-30T21:11:57.663Z,13.55
2022-10-30T21:15:03.352Z,13.52
2022-10-30T21:18:10.157Z,13.48
2022-10-30T21:21:15.167Z,13.37
2022-10-30T21:24:20.033Z,13.35
2022-10-30T21:27:26.277Z,13.28
2022-10-30T21:30:31.095Z,13.29
2022-10-30T21:33:40.004Z,13.31
2022-10-30T21:36:45.003Z,13.30
2022-10-30T21:39:52.944Z,13.21
2022-10-30T21:43:03.044Z,13.15
2022-10-30T21:46:10.428Z,13.10
2022-10-30T21:49:16.647Z,13.15
2022-10-30T21:52:21.774Z,13.07
2022-10-30T21:55:26.571Z,13.01
2022-10-30T21:58:32.999Z,12.98
2022-10-30T22:01:41.077Z,13.01
2022-10-30T22:04:45.882Z,12.93
2022-10-30T22:07:50.847Z,12.90
2022-10-30T22:10:55.404Z,12.86
2022-10-30T22:14:03.071Z,12.88
2022-10-30T22:17:10.076Z,12.82
2022-10-30T22:20:14.986Z,12.81
2022-10-30T22:23:19.903Z,12.76
2022-10-30T22:26:25.770Z,12.74
2022-10-30T22:29:35.264Z,12.70
2022-10-30T22:32:41.946Z,12.70
2022-10-30T22:35:47.161Z,12.62
2022-10-30T22:38:56.938Z,12.63
2022-10-30T22:42:01.998Z,12.64
2022-10-30T22:45:09.527Z,12.64
2022-10-30T22:48:14.459Z,12.66
2022-10-30T22:51:22.245Z,12.57
2022-10-30T22:54:27.375Z,12.61
2022-10-30T22:57:32.219Z,12.62
2022-10-30T23:00:39.499Z,12.57
2022-10-30T23:03:44.852Z,12.55
2022-10-30T23:06:50.308Z,12.52
2022-10-30T23:09:57.718Z,12.44
2022-10-30T23:13:02.544Z,12.39
2022-10-30T23:16:10.233Z,12.34
2022-10-30T23:19:15.489Z,12.29
2022-10-30T23:22:20.224Z,12.29
2022-10-30T23:25:27.137Z,12.21
2022-10-30T23:28:32.458Z,12.23
2022-10-30T23:31:40.248Z,12.19
2022-10-30T23:34:47.272Z,12.22
2022-10-30T23:37:52.300Z,12.16
2022-10-30T23:40:56.922Z,12.17
2022-10-30T23:44:04.027Z,12.15
2022-10-30T23:47:10.491Z,12.07
2022-10-30T23:50:15.159Z,12.03
2022-10-30T23:53:21.565Z,12.02
2022-10-30T23:56:29.945Z,11.94
2022-10-30T23:59:34.635Z,11.90
